createdAt,value
2022-11-26T00:02:23.267Z,61.30
2022-11-26T00:12:32.860Z,61.20
2022-11-26T00:22:44.250Z,58.90
2022-11-26T00:32:52.348Z,58.60
2022-11-26T00:43:01.865Z,50.20
2022-11-26T00:53:13.427Z,45.80
2022-11-26T01:03:20.625Z,43.90
2022-11-26T01:13:29.115Z,43.40
2022-11-26T01:23:36.375Z,58.90
2022-11-26T01:33:43.343Z,58.60
2022-11-26T01:43:53.225Z,54.20
2022-11-26T01:54:00.525Z,53.40
2022-11-26T02:04:10.316Z,51.00
2022-11-26T02:14:18.148Z,49.80
2022-11-26T02:24:29.054Z,45.30
2022-11-26T02:34:37.782Z,53.70
2022-11-26T02:44:47.608Z,70.60
2022-11-26T03:05:03.783Z,68.70
2022-11-26T03:15:12.499Z,58.30
2022-11-26T03:25:20.129Z,53.30
2022-11-26T03:35:27.250Z,51.40
2022-11-26T03:45:34.382Z,45.40
2022-11-26T03:55:41.685Z,41.90
2022-11-26T04:05:48.665Z,39.50
2022-11-26T04:15:56.281Z,43.60
2022-11-26T04:26:03.791Z,42.60
2022-11-26T04:36:10.244Z,36.40
2022-11-26T04:46:17.509Z,36.70
2022-11-26T04:56:25.574Z,35.60
2022-11-26T05:06:33.033Z,32.90
2022-11-26T05:16:40.664Z,43.70
2022-11-26T05:26:51.192Z,44.00
2022-11-26T05:37:02.263Z,42.80
2022-11-26T05:47:09.633Z,37.80
2022-11-26T05:57:16.785Z,40.40
2022-11-26T06:07:23.904Z,42.90
2022-11-26T06:17:31.987Z,42.10
2022-11-26T06:27:39.971Z,55.40
2022-11-26T06:37:46.965Z,54.90
2022-11-26T06:47:54.767Z,48.90
2022-11-26T06:58:01.806Z,40.90
2022-11-26T07:08:08.082Z,42.90
2022-11-26T07:18:15.386Z,40.90
2022-11-26T07:28:22.619Z,49.10
2022-11-26T07:38:30.771Z,51.50
2022-11-26T07:48:40.461Z,54.40
2022-11-26T08:08:53.735Z,49.70
2022-11-26T08:19:03.148Z,48.70
2022-11-26T08:29:10.306Z,53.30
2022-11-26T08:39:19.319Z,55.90
2022-11-26T08:49:26.414Z,64.20
2022-11-26T08:59:33.731Z,51.10
2022-11-26T09:09:41.000Z,52.20
2022-11-26T09:19:48.151Z,45.50
2022-11-26T09:29:55.677Z,45.90
2022-11-26T09:40:02.907Z,45.70
2022-11-26T09:50:09.348Z,40.30
2022-11-26T10:00:24.117Z,43.00
2022-11-26T10:10:34.470Z,49.20
2022-11-26T10:20:52.104Z,39.60
2022-11-26T10:30:57.525Z,22.60
2022-11-26T10:41:04.744Z,25.60
2022-11-26T10:51:13.801Z,29.90
2022-11-26T11:01:21.955Z,26.90
2022-11-26T11:11:32.172Z,21.80
2022-11-26T11:21:48.359Z,53.20
2022-11-26T11:31:56.872Z,23.70
2022-11-26T11:42:01.693Z,20.60
2022-11-26T11:52:13.290Z,21.10
2022-11-26T12:02:23.987Z,19.00
2022-11-26T12:12:36.248Z,19.70
2022-11-26T12:22:44.702Z,16.90
2022-11-26T12:32:54.450Z,14.90
2022-11-26T12:43:03.552Z,19.90
2022-11-26T12:53:19.100Z,25.70
2022-11-26T13:03:32.437Z,21.20
2022-11-26T13:13:37.968Z,20.10
2022-11-26T13:23:48.135Z,19.80
2022-11-26T13:34:29.781Z,20.80
2022-11-26T13:54:58.332Z,27.70
2022-11-26T14:05:08.885Z,28.60
2022-11-26T14:15:47.085Z,36.60
2022-11-26T14:25:54.814Z,32.70
2022-11-26T14:36:02.330Z,42.20
2022-11-26T14:46:08.137Z,29.80
2022-11-26T14:56:15.624Z,27.70
2022-11-26T15:06:25.405Z,30.10
2022-11-26T15:16:36.367Z,32.80
2022-11-26T15:26:46.321Z,30.50
2022-11-26T15:36:54.332Z,34.90
2022-11-26T15:47:02.859Z,32.50
2022-11-26T15:57:20.309Z,33.80
2022-11-26T16:07:27.572Z,31.40
2022-11-26T16:17:35.144Z,25.90
2022-11-26T16:27:46.412Z,19.50
2022-11-26T16:37:57.002Z,22.40
2022-11-26T16:48:05.065Z,29.10
2022-11-26T16:58:17.310Z,27.60
2022-11-26T17:08:25.248Z,23.80
2022-11-26T17:18:33.265Z,22.50
2022-11-26T17:28:40.293Z,23.20
2022-11-26T17:38:48.783Z,28.80
2022-11-26T17:48:59.789Z,35.20
2022-11-26T17:59:07.492Z,28.00
2022-11-26T18:09:13.615Z,24.30
2022-11-26T18:19:23.279Z,25.40
2022-11-26T18:29:30.313Z,25.90
2022-11-26T18:39:38.531Z,43.40
2022-11-26T18:49:47.939Z,29.30
2022-11-26T18:59:55.533Z,24.60
2022-11-26T19:10:02.072Z,23.80
2022-11-26T19:20:09.974Z,23.70
2022-11-26T19:30:17.978Z,30.00
2022-11-26T19:40:25.227Z,31.80
2022-11-26T19:50:33.498Z,35.70
2022-11-26T20:00:40.261Z,33.80
2022-11-26T20:10:50.128Z,32.10
2022-11-26T20:20:58.172Z,36.80
2022-11-26T20:31:06.967Z,76.30
2022-11-26T20:41:17.688Z,57.00
2022-11-26T20:51:25.686Z,53.50
2022-11-26T21:01:33.646Z,45.20
2022-11-26T21:11:41.556Z,34.00
2022-11-26T21:21:47.685Z,29.70
2022-11-26T21:31:53.867Z,30.10
2022-11-26T21:42:01.621Z,37.90
2022-11-26T21:52:07.876Z,37.20
2022-11-26T22:02:14.309Z,37.60
2022-11-26T22:12:22.119Z,39.10
2022-11-26T22:22:29.476Z,36.20
2022-11-26T22:32:37.989Z,33.80
2022-11-26T22:42:45.490Z,35.20
2022-11-26T22:52:52.830Z,34.20
2022-11-26T23:03:00.328Z,40.50
2022-11-26T23:13:08.631Z,54.90
2022-11-26T23:23:16.269Z,43.40
2022-11-26T23:33:23.810Z,45.10
2022-11-26T23:43:33.076Z,38.60
2022-11-26T23:53:42.062Z,41.60
